METAR Data
IDs: Format: Raw Decoded Include TAF

Data at: 1911 UTC 26 Sep 2021

EVRA 261850Z VRB01KT 9999 MIFG FEW002 07/06 Q1025 NOSIG